Pagina principale
METAR-TAF:

METAR-TAF

Aeroporti :

Anchorage, Alaska, Stati Uniti

latitudine: 61-13N, longitudine: 149-51W, altezza: 42 m

Osservazione

Il bollettino è stato emesso 1 ora e 13 minuti fa, alle 13:53 UTC
Vento 3 kt da est/nord-est
Temperature 10°C
Umidità 87%
Pressione 1024 hPa
Visibilità: 16.1 km
Poco nuvoloso ad un'altezza di 8000 ft
Poco nuvoloso ad un'altezza di 25000 ft

METAR: PAMR 191353Z 07003KT 10SM FEW080 FEW250 10/08 A3024 RMK AO2 SLP242 T01000078

Ora: 07:06 (15:06 UTC)


TAF: mancante

Osservazioni e previsioni meteorologiche di più di 4000 aeroporti (messaggi METAR e TAF).

Le stazioni disponibili sono rappresentate dai dischi gialli e rossi sulla carta.

Puntare il mouse per vedere il nome della stazione.

Clicca sopra per visualizzare le osservazioni e previsioni meteorologiche.

Per cambiare la mappa : fare clic sui pulsanti verdi con una croce nera per ingrandire, il pulsante verde con un trattino per diminuire, o sulla freccia verde per le mappe adiacenti.


METAR-TAF: